INS Airport (Creech Afb) Information

FAA: INS - ICAO: KINS

INS Airport Location

State Nevada
County Clark
City Indian Springs
INS Airport is 1 mile north of Indian Springs, NV.
Latitude 36-35-10.8376N
Longitude 115-40-38.5340W
Elevation 3,134ft

KINS Airport METARs

METAR KINS 060758Z AUTO 00000KT 10SM CLR 07/M10 A3016 RMK AO2 SLP192 T00691104 402200003 $
Altimeter 30.16"
Temperature 6.9°C (44.4°F)
Wind 0° at 0KT
Clouds Skies are clear.
Visibility 10.0mi
Time observed: 2021-12-06T07:58:00Z

INS Airport Details

Status Operational
Activation N/A
Ownership Military - Air Force
Usage Private
Chart LAS VEGAS
ATC on-site Yes
Beacon schedule sunset-sunrise
Beacon color clear green

INS Airport Contacts

Owner USAF
Owner address NELLIS AFB, LAS VEGAS, NV 89110
Owner phone N/A
Manager JOHN WALZL
Manager address P.O. BOX 206, EUREKA, NV 89316
Manager phone 775-237-6100

INS Airport (Creech Afb) Radio Frequencies

INS (Airport) Radio Frequencies

UNICOM N/A
Common traffic advisory frequency (CTAF) N/A